EPKK/KRK METAR and TAF weather

Enter ICAO airport designator
Station Type Date Time Source
EPKK METAR 2021/08/04 18:30 UTC NOAA

EPKK 041830Z 34004KT 9999 FEW060 20/14 Q1014


Station Type Date Time Source
EPKK Decoded METAR 2021/08/04 18:30 UTC NOAA

Krakow, Poland (EPKK) 50-05N 019-48E 237M
Aug 04, 2021 - 02:30 PM EDT / 2021.08.04 1830 UTC
Wind: from the NNW (340 degrees) at 5 MPH (4 KT):0
Visibility: greater than 7 mile(s):0
Sky conditions: mostly clear
Temperature: 68 F (20 C)
Dew Point: 57 F (14 C)
Relative Humidity: 68%
Pressure (altimeter): 29.94 in. Hg (1014 hPa)
ob: EPKK 041830Z 34004KT 9999 FEW060 20/14 Q1014
cycle: 18

Station Type Date Time Source
EPKK TAF 2021/08/04 18:33 UTC NOAA

TAF EPKK 041730Z 0418/0518 28010KT CAVOK
BECMG 0418/0421 VRB02KT
BECMG 0500/0503 07010KT RA BKN014
TEMPO 0503/0518 4000 RA BR BKN007 PROB30
TEMPO 0503/0518 2500 +RA BR

Example: see airport list